createdAt,value
2022-11-08T00:00:00.203Z,13.00
2022-11-08T00:02:27.224Z,6.50
2022-11-08T00:04:54.409Z,12.00
2022-11-08T00:07:40.030Z,12.00
2022-11-08T00:10:26.449Z,13.00
2022-11-08T00:13:11.856Z,35.00
2022-11-08T00:15:39.083Z,29.75
2022-11-08T00:18:07.356Z,44.00
2022-11-08T00:20:35.030Z,28.00
2022-11-08T00:23:02.339Z,31.25
2022-11-08T00:25:29.204Z,26.50
2022-11-08T00:27:56.132Z,23.50
2022-11-08T00:30:23.030Z,16.25
2022-11-08T00:32:50.014Z,14.50
2022-11-08T00:35:16.931Z,11.00
2022-11-08T00:37:43.829Z,16.75
2022-11-08T00:40:11.425Z,11.75
2022-11-08T00:42:38.745Z,36.00
2022-11-08T00:45:06.294Z,29.25
2022-11-08T00:47:33.962Z,20.75
2022-11-08T00:50:01.023Z,20.25
2022-11-08T00:52:27.933Z,14.50
2022-11-08T00:54:54.865Z,11.25
2022-11-08T00:57:27.473Z,13.50
2022-11-08T01:00:08.661Z,43.25
2022-11-08T01:02:35.686Z,31.00
2022-11-08T01:05:02.643Z,18.50
2022-11-08T01:07:29.564Z,39.50
2022-11-08T01:09:56.923Z,32.25
2022-11-08T01:12:23.792Z,25.25
2022-11-08T01:14:50.923Z,17.50
2022-11-08T01:17:17.789Z,15.75
2022-11-08T01:19:44.728Z,6.50
2022-11-08T01:22:11.589Z,7.25
2022-11-08T01:24:38.658Z,10.75
2022-11-08T01:27:05.537Z,13.50
2022-11-08T01:29:33.604Z,7.75
2022-11-08T01:32:00.490Z,8.75
2022-11-08T01:34:27.362Z,5.75
2022-11-08T01:36:54.246Z,8.00
2022-11-08T01:39:21.147Z,6.25
2022-11-08T01:41:48.037Z,16.25
2022-11-08T01:44:17.649Z,27.75
2022-11-08T01:46:47.969Z,65.00
2022-11-08T01:49:24.746Z,54.67
2022-11-08T01:52:06.834Z,54.00
2022-11-08T01:55:05.009Z,52.00
2022-11-08T01:57:41.199Z,37.33
2022-11-08T02:00:12.630Z,30.75
2022-11-08T02:02:42.997Z,27.25
2022-11-08T02:05:28.063Z,58.33
2022-11-08T02:11:29.260Z,40.00
2022-11-08T02:14:17.422Z,53.00
2022-11-08T02:17:00.944Z,60.00
2022-11-08T02:20:04.755Z,68.67
2022-11-08T02:23:01.461Z,62.33
2022-11-08T02:25:48.970Z,54.00
2022-11-08T02:28:16.761Z,68.00
2022-11-08T02:30:43.875Z,63.67
2022-11-08T02:33:22.085Z,57.00
2022-11-08T02:35:52.084Z,58.67
2022-11-08T02:38:19.904Z,65.67
2022-11-08T02:40:53.039Z,51.00
2022-11-08T02:43:20.492Z,51.33
2022-11-08T02:45:47.790Z,35.67
2022-11-08T02:48:17.024Z,28.25
2022-11-08T02:50:44.618Z,35.33
2022-11-08T02:53:12.191Z,42.67
2022-11-08T02:55:39.281Z,62.67
2022-11-08T02:58:06.219Z,71.67
2022-11-08T03:00:33.156Z,60.33
2022-11-08T03:03:00.431Z,72.67
2022-11-08T03:05:28.408Z,66.00
2022-11-08T03:07:56.324Z,64.33
2022-11-08T03:10:25.122Z,58.00
2022-11-08T03:13:03.496Z,61.00
2022-11-08T03:15:30.753Z,64.00
2022-11-08T03:17:58.793Z,71.67
2022-11-08T03:20:32.220Z,68.67
2022-11-08T03:23:02.172Z,73.33
2022-11-08T03:25:29.531Z,78.33
2022-11-08T03:27:56.579Z,76.50
2022-11-08T03:30:23.532Z,79.00
2022-11-08T03:32:50.450Z,80.67
2022-11-08T03:35:17.613Z,64.00
2022-11-08T03:37:55.107Z,64.00
2022-11-08T03:40:22.728Z,68.67
2022-11-08T03:42:49.988Z,66.00
2022-11-08T03:45:17.515Z,64.00
2022-11-08T03:47:46.554Z,70.00
2022-11-08T03:50:16.285Z,85.00
2022-11-08T03:52:44.872Z,79.00
2022-11-08T03:55:12.849Z,80.67
2022-11-08T03:57:41.210Z,73.75
2022-11-08T04:00:10.742Z,76.67
2022-11-08T04:02:37.859Z,60.33
2022-11-08T04:05:06.038Z,49.00
2022-11-08T04:07:33.194Z,47.67
2022-11-08T04:10:00.219Z,36.33
2022-11-08T04:12:45.491Z,70.67
2022-11-08T04:15:19.894Z,77.00
2022-11-08T04:18:09.120Z,77.00
2022-11-08T04:21:01.834Z,80.00
2022-11-08T04:23:30.209Z,96.00
2022-11-08T04:25:59.955Z,97.50
2022-11-08T04:28:29.303Z,89.25
2022-11-08T04:30:58.194Z,82.75
2022-11-08T04:33:25.883Z,87.00
2022-11-08T04:35:54.353Z,74.33
2022-11-08T04:38:22.256Z,54.00
2022-11-08T04:40:49.172Z,12.67
2022-11-08T04:43:16.148Z,47.00
2022-11-08T04:45:43.039Z,63.33
2022-11-08T04:48:10.498Z,68.00
2022-11-08T04:50:37.549Z,61.00
2022-11-08T04:53:04.499Z,43.00
2022-11-08T04:55:31.406Z,31.00
2022-11-08T04:57:59.332Z,37.00
2022-11-08T05:00:27.190Z,43.67
2022-11-08T05:02:54.454Z,48.00
2022-11-08T05:05:22.912Z,60.33
2022-11-08T05:07:49.997Z,54.00
2022-11-08T05:10:17.030Z,47.33
2022-11-08T05:12:43.974Z,42.67
2022-11-08T05:15:11.515Z,40.00
2022-11-08T05:17:38.464Z,65.67
2022-11-08T05:20:25.087Z,67.00
2022-11-08T05:23:10.407Z,44.33
2022-11-08T05:25:41.221Z,24.67
2022-11-08T05:28:08.133Z,22.67
2022-11-08T05:30:35.073Z,27.33
2022-11-08T05:33:02.022Z,32.33
2022-11-08T05:35:28.880Z,32.67
2022-11-08T05:37:55.803Z,30.67
2022-11-08T05:40:22.655Z,44.00
2022-11-08T05:42:49.520Z,31.33
2022-11-08T05:45:16.513Z,33.67
2022-11-08T05:47:46.657Z,19.33
2022-11-08T05:50:19.129Z,30.67
2022-11-08T05:52:46.335Z,17.50
2022-11-08T05:55:13.269Z,14.00
2022-11-08T05:57:43.746Z,17.75
2022-11-08T06:00:12.356Z,17.33
2022-11-08T06:02:40.071Z,41.00
2022-11-08T06:05:08.297Z,48.33
2022-11-08T06:07:35.536Z,51.67
2022-11-08T06:10:03.092Z,65.67
2022-11-08T06:12:30.087Z,53.67
2022-11-08T06:14:57.315Z,54.00
2022-11-08T06:17:26.360Z,33.67
2022-11-08T06:19:56.079Z,38.33
2022-11-08T06:22:23.164Z,43.00
2022-11-08T06:24:50.071Z,46.00
2022-11-08T06:27:17.038Z,44.67
2022-11-08T06:29:43.932Z,49.00
2022-11-08T06:32:11.324Z,35.00
2022-11-08T06:34:38.389Z,34.33
2022-11-08T06:37:05.608Z,22.33
2022-11-08T06:39:32.635Z,17.75
2022-11-08T06:42:01.159Z,10.75
2022-11-08T06:44:28.146Z,11.50
2022-11-08T06:46:57.864Z,31.00
2022-11-08T06:49:24.777Z,31.00
2022-11-08T06:51:52.605Z,30.00
2022-11-08T06:54:23.254Z,44.67
2022-11-08T06:56:55.972Z,27.33
2022-11-08T06:59:23.486Z,29.67
2022-11-08T07:01:50.625Z,39.67
2022-11-08T07:04:17.733Z,22.33
2022-11-08T07:06:44.643Z,31.33
2022-11-08T07:09:11.638Z,38.00
2022-11-08T07:11:38.757Z,18.75
2022-11-08T07:14:05.913Z,12.75
2022-11-08T07:16:33.005Z,14.50
2022-11-08T07:18:59.868Z,16.00
2022-11-08T07:21:26.777Z,46.67
2022-11-08T07:23:53.701Z,63.33
2022-11-08T07:26:20.717Z,58.33
2022-11-08T07:28:47.605Z,38.67
2022-11-08T07:31:14.583Z,30.75
2022-11-08T07:33:41.530Z,22.75
2022-11-08T07:36:08.813Z,21.00
2022-11-08T07:38:35.722Z,17.50
2022-11-08T07:41:02.717Z,12.00
2022-11-08T07:43:30.474Z,17.75
2022-11-08T07:46:00.934Z,22.75
2022-11-08T07:48:29.620Z,36.00
2022-11-08T07:50:56.619Z,30.50
2022-11-08T07:53:23.920Z,26.25
2022-11-08T07:55:50.912Z,15.50
2022-11-08T07:58:18.083Z,9.25
2022-11-08T08:00:45.824Z,11.50
2022-11-08T08:03:14.846Z,12.25
2022-11-08T08:05:46.053Z,13.50
2022-11-08T08:08:14.433Z,12.00
2022-11-08T08:10:42.133Z,11.75
2022-11-08T08:13:09.742Z,16.25
2022-11-08T08:15:36.854Z,30.25
2022-11-08T08:18:06.137Z,30.50
2022-11-08T08:20:33.551Z,22.25
2022-11-08T08:23:01.518Z,10.00
2022-11-08T08:25:31.179Z,13.75
2022-11-08T08:28:01.015Z,12.00
2022-11-08T08:30:29.972Z,12.75
2022-11-08T08:33:32.448Z,14.25
2022-11-08T08:36:02.119Z,14.50
2022-11-08T08:38:30.308Z,12.00
2022-11-08T08:40:57.574Z,18.25
2022-11-08T08:43:24.831Z,16.75
2022-11-08T08:45:51.783Z,11.00
2022-11-08T08:48:18.750Z,9.25
2022-11-08T08:50:45.667Z,9.50
2022-11-08T08:53:13.406Z,9.50
2022-11-08T08:55:40.649Z,13.75
2022-11-08T08:58:07.627Z,9.50
2022-11-08T09:03:22.089Z,8.50
2022-11-08T09:05:49.183Z,20.25
2022-11-08T09:08:16.187Z,16.50
2022-11-08T09:10:43.494Z,15.00
2022-11-08T09:13:10.576Z,9.00
2022-11-08T09:15:39.647Z,9.25
2022-11-08T09:18:07.070Z,5.50
2022-11-08T09:20:34.239Z,9.25
2022-11-08T09:23:04.335Z,10.00
2022-11-08T09:25:31.885Z,10.50
2022-11-08T09:27:58.819Z,15.25
2022-11-08T09:30:26.743Z,10.00
2022-11-08T09:33:00.679Z,11.25
2022-11-08T09:35:29.530Z,9.75
2022-11-08T09:37:57.429Z,9.25
2022-11-08T09:40:36.755Z,9.00
2022-11-08T09:43:18.300Z,11.75
2022-11-08T09:45:48.181Z,21.25
2022-11-08T09:48:26.948Z,27.00
2022-11-08T09:50:57.154Z,16.25
2022-11-08T09:53:49.551Z,13.50
2022-11-08T09:56:23.792Z,10.75
2022-11-08T09:59:02.165Z,12.50
2022-11-08T10:01:34.930Z,16.00
2022-11-08T10:04:16.464Z,12.00
2022-11-08T10:07:10.560Z,9.75
2022-11-08T10:09:47.413Z,14.50
2022-11-08T10:12:17.109Z,9.50
2022-11-08T10:14:52.309Z,10.25
2022-11-08T10:17:31.684Z,14.50
2022-11-08T10:20:16.652Z,10.00
2022-11-08T10:23:08.030Z,6.75
2022-11-08T10:25:45.703Z,12.00
2022-11-08T10:28:22.290Z,13.50
2022-11-08T10:30:51.900Z,12.00
2022-11-08T10:33:31.079Z,6.75
2022-11-08T10:36:35.854Z,11.25
2022-11-08T10:39:29.115Z,8.50
2022-11-08T10:42:08.281Z,8.25
2022-11-08T10:44:36.815Z,9.00
2022-11-08T10:47:10.932Z,5.25
2022-11-08T10:49:42.123Z,9.25
2022-11-08T10:52:11.791Z,7.50
2022-11-08T10:54:48.035Z,6.75
2022-11-08T10:57:25.999Z,4.50
2022-11-08T10:59:54.087Z,13.50
2022-11-08T11:02:29.493Z,7.75
2022-11-08T11:05:16.412Z,9.50
2022-11-08T11:08:02.098Z,7.00
2022-11-08T11:10:29.192Z,5.25
2022-11-08T11:13:19.153Z,7.75
2022-11-08T11:15:48.321Z,9.75
2022-11-08T11:18:34.818Z,10.00
2022-11-08T11:21:07.112Z,7.75
2022-11-08T11:23:52.364Z,7.00
2022-11-08T11:26:34.792Z,7.50
2022-11-08T11:29:04.480Z,6.00
2022-11-08T11:31:42.695Z,6.25
2022-11-08T11:34:18.600Z,6.50
2022-11-08T11:36:51.460Z,8.67
2022-11-08T11:39:33.473Z,6.00
2022-11-08T11:42:31.106Z,9.00
2022-11-08T11:45:02.633Z,1.75
2022-11-08T11:47:47.175Z,7.50
2022-11-08T11:50:36.725Z,7.00
2022-11-08T11:53:13.381Z,6.75
2022-11-08T11:56:06.130Z,6.33
2022-11-08T11:58:48.041Z,9.00
2022-11-08T12:01:52.899Z,7.00
2022-11-08T12:04:41.391Z,6.00
2022-11-08T12:07:22.273Z,6.50
2022-11-08T12:10:18.557Z,7.00
2022-11-08T12:12:51.222Z,10.00
2022-11-08T12:15:27.375Z,5.00
2022-11-08T12:18:41.625Z,4.33
2022-11-08T12:21:28.820Z,4.33
2022-11-08T12:24:25.152Z,4.00
2022-11-08T12:27:01.812Z,5.00
2022-11-08T12:29:49.820Z,3.00
2022-11-08T12:32:42.579Z,3.00
2022-11-08T12:35:21.305Z,1.67
2022-11-08T12:37:55.068Z,3.00
2022-11-08T12:40:33.995Z,1.00
2022-11-08T12:43:34.941Z,2.00
2022-11-08T12:46:16.736Z,2.00
2022-11-08T12:48:49.433Z,2.33
2022-11-08T12:51:37.448Z,1.67
2022-11-08T12:54:18.202Z,3.67
2022-11-08T12:56:48.651Z,3.00
2022-11-08T12:59:21.393Z,3.00
2022-11-08T13:01:49.409Z,2.00
2022-11-08T13:04:38.099Z,3.00
2022-11-08T13:07:17.069Z,2.00
2022-11-08T13:10:01.092Z,1.00
2022-11-08T13:12:47.040Z,1.00
2022-11-08T13:15:20.968Z,0.33
2022-11-08T13:18:24.948Z,1.67
2022-11-08T13:20:52.089Z,2.00
2022-11-08T13:23:27.797Z,1.00
2022-11-08T13:25:55.528Z,1.00
2022-11-08T13:28:43.783Z,0.67
2022-11-08T13:31:22.835Z,1.00
2022-11-08T13:34:42.381Z,0.33
2022-11-08T13:37:25.175Z,2.00
2022-11-08T13:40:08.799Z,3.00
2022-11-08T13:42:35.704Z,1.00
2022-11-08T13:45:24.755Z,1.00
2022-11-08T13:47:55.166Z,1.00
2022-11-08T13:50:38.771Z,1.00
2022-11-08T13:53:09.425Z,1.00
2022-11-08T13:55:42.207Z,1.00
2022-11-08T13:58:33.491Z,1.00
2022-11-08T14:01:02.297Z,1.00
2022-11-08T14:03:35.380Z,2.00
2022-11-08T14:06:46.415Z,0.00
2022-11-08T14:09:22.047Z,0.00
2022-11-08T14:12:05.150Z,2.00
2022-11-08T14:14:44.823Z,0.00
2022-11-08T14:17:47.327Z,2.00
2022-11-08T14:20:17.123Z,1.67
2022-11-08T14:22:49.882Z,0.33
2022-11-08T14:25:39.940Z,1.67
2022-11-08T14:28:31.496Z,2.00
2022-11-08T14:31:00.491Z,0.67
2022-11-08T14:33:30.546Z,0.00
2022-11-08T14:36:09.400Z,0.33
2022-11-08T14:38:45.504Z,0.00
2022-11-08T14:41:17.399Z,0.00
2022-11-08T14:43:46.383Z,0.00
2022-11-08T14:46:16.670Z,2.00
2022-11-08T14:48:59.822Z,1.00
2022-11-08T14:51:26.863Z,0.67
2022-11-08T14:53:55.491Z,0.00
2022-11-08T14:56:37.928Z,1.00
2022-11-08T14:59:07.150Z,1.00
2022-11-08T15:01:38.669Z,2.00
2022-11-08T15:04:16.562Z,1.50
2022-11-08T15:06:52.134Z,4.00
2022-11-08T15:09:32.668Z,4.25
2022-11-08T15:12:07.921Z,3.75
2022-11-08T15:14:37.127Z,2.25
2022-11-08T15:17:04.218Z,5.25
2022-11-08T15:19:43.251Z,8.00
2022-11-08T15:22:32.804Z,5.50
2022-11-08T15:25:19.413Z,9.75
2022-11-08T15:27:51.294Z,5.00
2022-11-08T15:30:23.496Z,6.50
2022-11-08T15:32:50.918Z,6.50
2022-11-08T15:35:31.081Z,4.50
2022-11-08T15:38:25.763Z,3.00
2022-11-08T15:40:55.642Z,4.00
2022-11-08T15:43:31.786Z,5.75
2022-11-08T15:46:00.610Z,8.25
2022-11-08T15:48:28.247Z,4.25
2022-11-08T15:50:58.187Z,6.75
2022-11-08T15:53:26.957Z,8.75
2022-11-08T15:56:03.096Z,9.50
2022-11-08T15:58:45.292Z,13.25
2022-11-08T16:01:20.475Z,13.00
2022-11-08T16:03:48.622Z,11.50
2022-11-08T16:06:15.793Z,11.25
2022-11-08T16:08:43.043Z,11.75
2022-11-08T16:11:22.787Z,16.25
2022-11-08T16:13:51.584Z,20.25
2022-11-08T16:16:18.696Z,18.50
2022-11-08T16:18:45.841Z,25.50
2022-11-08T16:21:14.178Z,22.25
2022-11-08T16:23:41.540Z,23.75
2022-11-08T16:26:16.211Z,22.00
2022-11-08T16:28:43.728Z,17.00
2022-11-08T16:31:16.085Z,15.50
2022-11-08T16:33:45.105Z,10.75
2022-11-08T16:36:19.582Z,18.50
2022-11-08T16:38:54.635Z,15.50
2022-11-08T16:41:23.681Z,20.50
2022-11-08T16:43:50.988Z,25.75
2022-11-08T16:46:21.194Z,21.00
2022-11-08T16:49:05.497Z,13.75
2022-11-08T16:51:40.974Z,10.50
2022-11-08T16:54:34.891Z,10.25
2022-11-08T16:57:28.340Z,8.25
2022-11-08T16:59:48.722Z,2.00
2022-11-08T17:02:30.729Z,6.25
2022-11-08T17:04:57.666Z,5.25
2022-11-08T17:07:26.326Z,4.25
2022-11-08T17:09:53.722Z,3.50
2022-11-08T17:12:22.163Z,3.75
2022-11-08T17:14:49.123Z,5.00
2022-11-08T17:17:16.216Z,9.50
2022-11-08T17:19:43.206Z,4.25
2022-11-08T17:22:10.145Z,5.00
2022-11-08T17:24:37.120Z,3.50
2022-11-08T17:27:04.074Z,7.50
2022-11-08T17:29:30.972Z,7.00
2022-11-08T17:31:57.859Z,8.00
2022-11-08T17:34:25.760Z,11.75
2022-11-08T17:36:53.211Z,9.00
2022-11-08T17:39:20.189Z,9.50
2022-11-08T17:41:47.202Z,10.00
2022-11-08T17:44:14.883Z,6.75
2022-11-08T17:46:41.844Z,8.00
2022-11-08T17:49:08.985Z,9.25
2022-11-08T17:51:36.863Z,6.00
2022-11-08T17:54:03.977Z,16.50
2022-11-08T17:56:31.264Z,15.50
2022-11-08T17:58:58.214Z,27.00
2022-11-08T18:01:25.321Z,45.50
2022-11-08T18:03:52.399Z,56.00
2022-11-08T18:06:19.413Z,72.25
2022-11-08T18:08:46.407Z,90.67
2022-11-08T18:11:13.348Z,67.50
2022-11-08T18:13:40.279Z,76.00
2022-11-08T18:16:22.319Z,71.00
2022-11-08T18:18:50.249Z,60.00
2022-11-08T18:21:18.467Z,35.75
2022-11-08T18:23:47.756Z,31.75
2022-11-08T18:26:16.966Z,21.50
2022-11-08T18:28:44.810Z,28.25
2022-11-08T18:31:18.391Z,38.75
2022-11-08T18:33:46.059Z,17.75
2022-11-08T18:36:21.393Z,25.25
2022-11-08T18:38:49.439Z,30.50
2022-11-08T18:41:31.018Z,18.75
2022-11-08T18:44:00.425Z,18.25
2022-11-08T18:46:29.420Z,21.25
2022-11-08T18:48:56.338Z,16.50
2022-11-08T18:51:24.025Z,12.00
2022-11-08T18:53:52.655Z,15.50
2022-11-08T18:56:19.920Z,13.25
2022-11-08T18:58:47.079Z,13.50
2022-11-08T19:01:14.995Z,21.00
2022-11-08T19:03:42.549Z,34.75
2022-11-08T19:06:09.796Z,26.25
2022-11-08T19:08:37.278Z,16.00
2022-11-08T19:11:08.324Z,47.75
2022-11-08T19:13:37.493Z,59.00
2022-11-08T19:16:14.317Z,54.25
2022-11-08T19:18:42.512Z,37.75
2022-11-08T19:21:21.851Z,31.25
2022-11-08T19:23:49.709Z,22.50
2022-11-08T19:26:22.157Z,23.50
2022-11-08T19:28:50.386Z,25.25
2022-11-08T19:31:19.746Z,30.25
2022-11-08T19:33:48.134Z,32.75
2022-11-08T19:36:20.346Z,31.25
2022-11-08T19:38:47.421Z,16.00
2022-11-08T19:41:18.784Z,24.00
2022-11-08T19:43:47.488Z,27.00
2022-11-08T19:46:17.280Z,20.75
2022-11-08T19:48:46.305Z,28.25
2022-11-08T19:51:18.938Z,19.00
2022-11-08T19:53:46.950Z,24.50
2022-11-08T19:56:21.756Z,15.50
2022-11-08T19:58:50.967Z,26.25
2022-11-08T20:01:26.905Z,51.00
2022-11-08T20:03:53.862Z,59.75
2022-11-08T20:06:21.528Z,49.25
2022-11-08T20:08:50.561Z,48.00
2022-11-08T20:11:21.206Z,54.00
2022-11-08T20:13:48.256Z,46.75
2022-11-08T20:16:27.839Z,36.75
2022-11-08T20:18:56.571Z,37.75
2022-11-08T20:21:23.654Z,33.50
2022-11-08T20:23:50.561Z,32.50
2022-11-08T20:26:23.347Z,13.50
2022-11-08T20:28:56.384Z,15.25
2022-11-08T20:31:25.149Z,13.25
2022-11-08T20:33:53.827Z,15.00
2022-11-08T20:36:23.627Z,24.25
2022-11-08T20:38:54.897Z,19.00
2022-11-08T20:41:21.842Z,12.75
2022-11-08T20:43:48.764Z,8.75
2022-11-08T20:46:19.540Z,18.25
2022-11-08T20:48:51.705Z,12.75
2022-11-08T20:51:20.417Z,11.75
2022-11-08T20:53:48.685Z,9.75
2022-11-08T20:56:18.020Z,44.00
2022-11-08T20:58:46.326Z,35.00
2022-11-08T21:01:16.811Z,59.00
2022-11-08T21:03:45.848Z,60.67
2022-11-08T21:06:15.558Z,42.00
2022-11-08T21:09:00.659Z,26.75
2022-11-08T21:11:30.627Z,42.50
2022-11-08T21:13:59.081Z,41.75
2022-11-08T21:16:30.893Z,60.33
2022-11-08T21:19:00.348Z,64.33
2022-11-08T21:21:27.692Z,55.67
2022-11-08T21:23:54.924Z,56.75
2022-11-08T21:26:22.690Z,44.50
2022-11-08T21:28:49.665Z,75.00
2022-11-08T21:31:16.572Z,75.33
2022-11-08T21:33:43.955Z,71.33
2022-11-08T21:36:10.975Z,57.67
2022-11-08T21:38:39.254Z,60.67
2022-11-08T21:41:08.763Z,53.25
2022-11-08T21:43:43.167Z,41.75
2022-11-08T21:46:24.988Z,54.67
2022-11-08T21:49:00.299Z,39.75
2022-11-08T21:51:29.559Z,68.33
2022-11-08T21:53:58.000Z,68.00
2022-11-08T21:56:28.210Z,64.33
2022-11-08T21:58:55.598Z,57.00
2022-11-08T22:01:28.614Z,21.25
2022-11-08T22:03:57.445Z,36.75
2022-11-08T22:06:24.341Z,30.00
2022-11-08T22:08:51.623Z,27.25
2022-11-08T22:11:18.987Z,33.50
2022-11-08T22:13:45.888Z,34.00
2022-11-08T22:16:13.116Z,27.50
2022-11-08T22:19:03.592Z,13.00
2022-11-08T22:21:40.684Z,24.75
2022-11-08T22:24:22.728Z,23.00
2022-11-08T22:26:51.355Z,30.75
2022-11-08T22:29:18.415Z,28.50
2022-11-08T22:31:45.751Z,23.50
2022-11-08T22:34:12.836Z,16.00
2022-11-08T22:36:45.241Z,14.00
2022-11-08T22:39:18.968Z,32.75
2022-11-08T22:41:47.216Z,19.75
2022-11-08T22:44:15.427Z,14.00
2022-11-08T22:46:43.531Z,13.75
2022-11-08T22:49:12.309Z,18.50
2022-11-08T22:51:40.141Z,26.75
2022-11-08T22:54:08.029Z,34.25
2022-11-08T22:56:36.186Z,29.25
2022-11-08T22:59:03.708Z,23.00
2022-11-08T23:01:30.687Z,18.25
2022-11-08T23:03:57.599Z,11.50
2022-11-08T23:06:24.499Z,11.25
2022-11-08T23:08:51.594Z,22.00
2022-11-08T23:11:37.455Z,36.50
2022-11-08T23:14:23.288Z,26.50
2022-11-08T23:16:50.327Z,22.75
2022-11-08T23:19:39.336Z,24.00
2022-11-08T23:22:27.994Z,24.50
2022-11-08T23:24:54.914Z,37.50
2022-11-08T23:27:40.308Z,21.75
2022-11-08T23:30:26.926Z,28.25
2022-11-08T23:32:53.859Z,34.50
2022-11-08T23:35:21.688Z,36.25
2022-11-08T23:37:49.093Z,39.25
2022-11-08T23:40:36.460Z,36.00
2022-11-08T23:43:30.987Z,31.00
2022-11-08T23:46:04.021Z,44.00
2022-11-08T23:48:30.963Z,46.50
2022-11-08T23:50:57.874Z,27.50
2022-11-08T23:53:27.782Z,18.50
2022-11-08T23:55:54.688Z,20.25
2022-11-08T23:58:22.271Z,19.00
